Time;durP1;ratioP1;P1;durP2;ratioP2;P2;SDS_P1;SDS_P2;PMS_P1;PMS_P2;Temp;Humidity;BMP_temperature;BMP_pressure;BME280_temperature;BME280_humidity;BME280_pressure;Samples;Min_cycle;Max_cycle;Signal;HPM_P1;HPM_P2
2022/11/17 00:01:21;;;;;;;33.08;30.42;;;7.80;99.90;;;;;;6217569;23;20024;-89
2022/11/17 00:03:50;;;;;;;32.65;30.13;;;8.60;99.90;;;;;;6222920;23;20023;-91
2022/11/17 00:06:19;;;;;;;29.58;27.08;;;7.70;99.90;;;;;;6202406;23;20020;-90
2022/11/17 00:08:47;;;;;;;203.73;187.45;;;7.80;99.90;;;;;;6203786;23;20020;-90
2022/11/17 00:11:17;;;;;;;53.10;49.17;;;8.80;99.90;;;;;;6203888;23;20032;-90
2022/11/17 00:16:28;;;;;;;31.52;29.02;;;7.70;99.90;;;;;;6216448;23;20021;-92
2022/11/17 00:21:37;;;;;;;86.22;77.03;;;8.50;99.90;;;;;;6190002;23;20032;-90
2022/11/17 00:24:03;;;;;;;10.98;5.03;;;7.90;99.90;;;;;;6190774;23;20339;-89
2022/11/17 00:26:34;;;;;;;136.40;124.45;;;7.70;99.90;;;;;;6189629;23;20065;-91
2022/11/17 00:29:07;;;;;;;243.18;171.25;;;8.00;99.90;;;;;;6215858;23;20016;-91
2022/11/17 00:34:20;;;;;;;8.35;5.22;;;7.70;99.90;;;;;;6189918;23;20027;-93
2022/11/17 00:36:51;;;;;;;11.60;6.15;;;7.70;99.90;;;;;;6190290;23;20044;-91
2022/11/17 00:39:20;;;;;;;9.95;5.82;;;8.30;99.90;;;;;;6189545;23;20074;-90
2022/11/17 00:41:46;;;;;;;11.30;6.22;;;7.70;99.90;;;;;;6216173;23;20013;-90
2022/11/17 00:44:12;;;;;;;11.60;6.47;;;7.00;99.90;;;;;;6189385;23;20016;-89
2022/11/17 00:46:38;;;;;;;9.63;6.13;;;7.90;99.90;;;;;;6189417;23;20013;-89
2022/11/17 00:49:07;;;;;;;255.60;219.82;;;7.60;99.90;;;;;;6189023;23;20352;-90
2022/11/17 00:51:37;;;;;;;8.90;5.18;;;8.30;99.90;;;;;;6164620;23;20020;-89
2022/11/17 00:54:05;;;;;;;10.43;6.70;;;7.60;99.90;;;;;;6189680;23;20732;-89
2022/11/17 00:56:32;;;;;;;13.30;5.75;;;7.50;99.90;;;;;;6189304;23;20396;-90
2022/11/17 00:58:58;;;;;;;9.32;5.80;;;7.40;99.90;;;;;;6215573;23;20032;-90
2022/11/17 01:01:25;;;;;;;10.02;5.95;;;7.50;99.90;;;;;;6216858;23;20024;-91
2022/11/17 01:04:01;;;;;;;12.77;5.72;;;7.70;99.90;;;;;;6190120;23;20024;-92
2022/11/17 01:06:31;;;;;;;63.72;45.40;;;8.20;99.90;;;;;;6216801;23;20020;-89
2022/11/17 01:09:04;;;;;;;73.68;48.25;;;8.20;99.90;;;;;;6189876;23;20028;-91
2022/11/17 01:11:30;;;;;;;18.65;16.77;;;7.50;99.90;;;;;;6188884;23;20012;-90
2022/11/17 01:14:00;;;;;;;48.17;33.10;;;7.50;99.90;;;;;;6216085;23;20047;-91
2022/11/17 01:16:26;;;;;;;8.95;5.25;;;8.50;99.90;;;;;;6215958;23;20062;-93
2022/11/17 01:19:01;;;;;;;11.23;5.88;;;8.30;99.90;;;;;;6189236;23;20017;-90
2022/11/17 01:21:28;;;;;;;8.25;4.82;;;7.40;99.90;;;;;;6189445;23;20320;-93
2022/11/17 01:23:55;;;;;;;43.50;28.98;;;7.30;99.90;;;;;;6188862;23;20025;-90
2022/11/17 01:26:24;;;;;;;8.15;5.03;;;7.90;99.90;;;;;;6189379;23;20012;-90
2022/11/17 01:28:51;;;;;;;8.82;5.18;;;7.60;99.90;;;;;;6214963;23;20013;-91
2022/11/17 01:31:19;;;;;;;10.82;6.53;;;7.30;99.90;;;;;;6188620;23;20023;-90
2022/11/17 01:33:45;;;;;;;9.48;6.25;;;6.60;99.90;;;;;;6215488;23;20016;-91
2022/11/17 01:39:36;;;;;;;12.35;10.48;;;6.80;99.90;;;;;;6066197;23;20027;-87
2022/11/17 01:42:08;;;;;;;8.25;7.35;;;7.30;99.90;;;;;;6041371;23;20015;-88
2022/11/17 01:44:53;;;;;;;11.73;6.28;;;7.30;99.90;;;;;;6065260;23;20085;-90
2022/11/17 01:47:34;;;;;;;7.95;5.55;;;6.60;99.90;;;;;;6065550;23;20027;-89
2022/11/17 01:50:18;;;;;;;11.70;6.05;;;7.30;99.90;;;;;;6041601;23;20394;-90
2022/11/17 01:52:45;;;;;;;9.93;6.25;;;7.30;99.90;;;;;;6065491;23;20363;-91
2022/11/17 01:55:11;;;;;;;10.30;5.78;;;6.80;99.90;;;;;;6041425;23;20458;-89
2022/11/17 01:58:01;;;;;;;11.20;5.95;;;7.80;99.90;;;;;;6065538;23;20161;-86
2022/11/17 02:00:28;;;;;;;12.75;6.10;;;7.30;99.90;;;;;;6065143;23;20019;-89
2022/11/17 02:02:54;;;;;;;20.85;17.38;;;8.40;99.90;;;;;;6064875;23;20027;-86
2022/11/17 02:05:39;;;;;;;34.78;32.13;;;7.40;99.90;;;;;;6065539;23;20023;-87
2022/11/17 02:08:06;;;;;;;23.48;21.75;;;8.30;99.90;;;;;;6065360;23;20094;-88
2022/11/17 02:10:34;;;;;;;15.00;10.02;;;7.70;99.90;;;;;;6041234;23;20547;-89
2022/11/17 02:13:00;;;;;;;12.02;7.38;;;7.90;99.90;;;;;;6041568;23;20023;-89
2022/11/17 02:15:27;;;;;;;16.05;14.50;;;7.20;99.90;;;;;;6078669;23;20051;-86
2022/11/17 02:17:53;;;;;;;45.05;41.50;;;7.80;99.90;;;;;;6215520;23;20031;-91
2022/11/17 02:20:37;;;;;;;8.10;4.75;;;7.90;99.90;;;;;;6214769;23;20448;-87
2022/11/17 02:23:39;;;;;;;275.58;206.07;;;7.30;99.90;;;;;;6215321;23;20068;-87
2022/11/17 02:26:46;;;;;;;293.40;221.73;;;7.30;99.90;;;;;;6188408;23;20070;-86
2022/11/17 02:29:26;;;;;;;6.57;4.20;;;7.30;99.90;;;;;;6041498;23;20101;-87
2022/11/17 02:32:12;;;;;;;32.58;29.90;;;8.20;99.90;;;;;;6041206;23;20094;-87
2022/11/17 02:35:06;;;;;;;8.80;5.30;;;7.30;99.90;;;;;;6065273;23;20065;-88
2022/11/17 02:37:49;;;;;;;221.23;199.65;;;7.30;99.90;;;;;;5980087;23;20087;-88
2022/11/17 02:40:31;;;;;;;260.05;211.18;;;7.30;99.90;;;;;;5980391;24;20137;-89
2022/11/17 02:45:55;;;;;;;7.40;4.88;;;7.70;99.90;;;;;;5981624;24;20068;-86
2022/11/17 02:48:31;;;;;;;12.38;5.43;;;7.80;99.90;;;;;;5958659;24;20020;-86
2022/11/17 02:50:58;;;;;;;7.55;4.97;;;7.60;99.90;;;;;;5958533;24;20452;-86
2022/11/17 02:53:26;;;;;;;9.75;5.28;;;7.80;99.90;;;;;;5981559;24;20048;-87
2022/11/17 02:55:52;;;;;;;8.93;5.05;;;7.30;99.90;;;;;;5958659;24;20024;-86
2022/11/17 02:58:19;;;;;;;8.02;4.70;;;7.30;99.90;;;;;;5958519;24;20027;-87
2022/11/17 03:01:23;;;;;;;9.98;4.35;;;7.70;99.90;;;;;;5959282;24;20057;-88
2022/11/17 03:04:03;;;;;;;9.50;4.57;;;7.20;99.90;;;;;;5939308;23;20028;-87
2022/11/17 03:07:07;;;;;;;6.57;4.80;;;7.20;99.90;;;;;;6009894;23;20031;-87
2022/11/17 03:10:12;;;;;;;7.20;4.40;;;7.30;99.90;;;;;;6010168;23;20077;-88
2022/11/17 03:12:54;;;;;;;8.38;4.93;;;7.20;99.90;;;;;;5930686;24;20020;-87
2022/11/17 03:15:37;;;;;;;8.07;5.20;;;7.20;99.90;;;;;;5979112;23;20059;-88
2022/11/17 03:18:17;;;;;;;7.35;4.38;;;7.20;99.90;;;;;;5986281;23;20020;-88
2022/11/17 03:21:09;;;;;;;9.30;5.20;;;8.10;99.90;;;;;;5986353;23;20416;-88
2022/11/17 03:23:48;;;;;;;8.15;5.20;;;7.20;99.90;;;;;;6009538;23;20024;-88
2022/11/17 03:26:22;;;;;;;7.90;4.82;;;7.10;99.90;;;;;;5986498;23;20028;-89
2022/11/17 03:28:48;;;;;;;9.27;4.20;;;7.30;99.90;;;;;;5986110;23;20019;-87
2022/11/17 03:31:15;;;;;;;9.80;4.80;;;8.10;99.90;;;;;;5986484;23;20111;-88
2022/11/17 03:33:44;;;;;;;6.85;4.65;;;7.70;99.90;;;;;;5986646;23;20463;-89
2022/11/17 03:36:13;;;;;;;67.97;47.25;;;8.00;99.90;;;;;;5986008;23;20032;-89
2022/11/17 03:39:09;;;;;;;55.70;41.17;;;8.30;99.90;;;;;;5986282;23;20027;-89
2022/11/17 03:41:40;;;;;;;106.32;87.40;;;7.00;99.90;;;;;;6063108;23;20022;-87
2022/11/17 03:44:06;;;;;;;60.20;47.20;;;7.40;99.90;;;;;;6095729;23;20093;-89
2022/11/17 03:46:35;;;;;;;8.20;5.22;;;8.10;99.90;;;;;;6071286;23;20053;-91
2022/11/17 03:49:25;;;;;;;70.72;47.83;;;8.00;99.90;;;;;;6101829;23;20024;-88
2022/11/17 03:51:51;;;;;;;102.10;61.83;;;6.60;99.90;;;;;;6216720;23;20333;-88
2022/11/17 03:54:17;;;;;;;8.43;5.20;;;5.70;99.90;;;;;;6189977;23;20019;-88
2022/11/17 03:57:02;;;;;;;9.73;5.68;;;8.20;99.90;;;;;;6189454;23;20103;-88
2022/11/17 03:59:50;;;;;;;7.88;5.28;;;6.90;99.90;;;;;;6215856;23;20008;-87
2022/11/17 04:02:19;;;;;;;8.48;5.07;;;6.90;99.90;;;;;;6190274;23;20071;-88
2022/11/17 04:07:29;;;;;;;9.32;5.53;;;5.90;99.90;;;;;;6186566;23;20024;-89
2022/11/17 04:09:55;;;;;;;9.32;6.13;;;7.70;99.90;;;;;;6159889;23;20020;-88
2022/11/17 04:17:50;;;;;;;43.28;29.52;;;6.80;99.90;;;;;;6184620;23;20404;-87
2022/11/17 04:20:16;;;;;;;18.98;17.42;;;7.70;99.90;;;;;;6185123;23;20021;-87
2022/11/17 04:22:42;;;;;;;12.00;8.25;;;7.60;99.90;;;;;;6185946;23;20091;-88
2022/11/17 04:25:07;;;;;;;10.20;8.10;;;7.20;99.90;;;;;;6159695;23;20017;-88
2022/11/17 04:30:17;;;;;;;9.48;5.93;;;7.10;99.90;;;;;;6184572;23;20021;-88
2022/11/17 04:32:43;;;;;;;27.02;18.77;;;7.40;99.90;;;;;;6184166;23;20092;-87
2022/11/17 04:35:09;;;;;;;6.32;5.22;;;6.80;99.90;;;;;;6159698;23;20079;-88
2022/11/17 04:37:34;;;;;;;8.88;6.03;;;7.60;99.90;;;;;;6184580;23;20024;-88
2022/11/17 04:40:00;;;;;;;8.57;6.15;;;7.40;99.90;;;;;;6184477;23;20092;-88
2022/11/17 04:42:26;;;;;;;10.20;6.80;;;5.80;99.90;;;;;;6159560;23;20321;-88
2022/11/17 04:44:51;;;;;;;25.95;23.48;;;6.70;99.90;;;;;;6184438;23;20321;-88
2022/11/17 04:47:17;;;;;;;9.50;5.65;;;7.10;99.90;;;;;;6185638;23;20021;-88
2022/11/17 04:49:43;;;;;;;8.15;4.63;;;6.70;99.90;;;;;;6184332;23;20024;-87
2022/11/17 04:52:08;;;;;;;7.20;5.18;;;6.50;99.90;;;;;;6186629;23;20009;-88
2022/11/17 04:54:34;;;;;;;7.85;5.50;;;5.30;99.90;;;;;;6183995;23;20015;-88
2022/11/17 04:57:00;;;;;;;10.93;6.43;;;6.80;99.90;;;;;;6184173;23;20099;-88
2022/11/17 04:59:26;;;;;;;7.53;4.95;;;7.60;99.90;;;;;;6186199;23;20009;-88
2022/11/17 05:01:52;;;;;;;9.90;5.95;;;7.30;99.90;;;;;;6183985;23;20111;-87
2022/11/17 05:07:04;;;;;;;9.15;5.15;;;6.50;99.90;;;;;;6189247;23;20028;-88
2022/11/17 05:09:30;;;;;;;9.75;5.43;;;6.70;99.90;;;;;;6189136;23;20020;-87
2022/11/17 05:14:40;;;;;;;9.18;5.75;;;6.80;99.90;;;;;;6215434;23;20016;-88
2022/11/17 05:17:08;;;;;;;7.85;4.80;;;7.20;99.90;;;;;;6188979;23;20523;-88
2022/11/17 05:19:43;;;;;;;9.30;5.85;;;7.60;99.90;;;;;;6189099;23;20362;-87
2022/11/17 05:24:55;;;;;;;;;;;7.20;99.90;;;;;;6216324;23;20091;-87
2022/11/17 05:27:21;;;;;;;8.40;5.20;;;7.50;99.90;;;;;;6215749;23;20331;-87
2022/11/17 05:29:48;;;;;;;8.73;4.70;;;7.00;99.90;;;;;;6188967;23;20158;-88
2022/11/17 05:32:14;;;;;;;7.13;4.80;;;6.90;99.90;;;;;;6215996;23;20071;-88
2022/11/17 05:34:39;;;;;;;7.00;5.00;;;6.60;99.90;;;;;;6188736;23;20456;-89
2022/11/17 05:37:05;;;;;;;7.30;4.60;;;7.00;99.90;;;;;;6188585;23;20399;-88
2022/11/17 05:39:31;;;;;;;7.45;4.65;;;7.40;99.90;;;;;;6189316;23;20099;-88
2022/11/17 05:41:56;;;;;;;7.05;4.70;;;6.90;99.90;;;;;;6215320;23;20056;-88
2022/11/17 05:44:22;;;;;;;6.13;4.28;;;7.40;99.90;;;;;;6215713;23;20016;-87
2022/11/17 05:46:48;;;;;;;6.20;4.13;;;7.60;99.90;;;;;;6215811;23;20139;-88
2022/11/17 05:49:13;;;;;;;5.55;3.53;;;6.30;99.90;;;;;;6188667;23;20351;-88
2022/11/17 05:51:39;;;;;;;9.15;4.68;;;7.10;99.90;;;;;;6215947;23;20017;-88
2022/11/17 05:54:05;;;;;;;6.18;4.07;;;6.90;99.90;;;;;;6215264;23;20029;-88
2022/11/17 05:56:40;;;;;;;5.47;3.53;;;6.60;99.90;;;;;;6215491;23;20020;-88
2022/11/17 05:59:08;;;;;;;7.10;3.53;;;6.30;99.90;;;;;;6215423;23;20424;-88
2022/11/17 06:01:38;;;;;;;5.60;3.47;;;6.30;99.90;;;;;;6215749;23;20020;-87
2022/11/17 06:04:06;;;;;;;5.47;3.67;;;7.10;99.90;;;;;;6188611;23;20028;-88
2022/11/17 06:06:33;;;;;;;4.03;2.97;;;6.90;99.90;;;;;;6215100;23;20511;-87
2022/11/17 06:08:59;;;;;;;6.57;3.55;;;6.30;99.90;;;;;;6163658;23;20024;-88
2022/11/17 06:11:24;;;;;;;9.05;3.65;;;7.20;99.90;;;;;;6189287;23;20012;-89
2022/11/17 06:13:50;;;;;;;4.90;3.13;;;7.10;99.90;;;;;;6188415;23;20096;-88
2022/11/17 06:16:19;;;;;;;6.00;3.63;;;6.20;99.90;;;;;;6215574;23;20016;-87
2022/11/17 06:18:50;;;;;;;6.00;3.80;;;7.10;99.90;;;;;;6188456;23;20077;-89
2022/11/17 06:21:16;;;;;;;5.53;3.05;;;6.30;99.90;;;;;;6164181;23;20067;-87
2022/11/17 06:23:43;;;;;;;5.00;3.70;;;5.80;99.90;;;;;;6188936;23;20059;-89
2022/11/17 06:26:10;;;;;;;4.95;3.25;;;7.10;99.90;;;;;;6215213;23;20013;-87
2022/11/17 06:28:38;;;;;;;5.28;3.33;;;6.60;99.90;;;;;;6188275;23;20013;-87
2022/11/17 06:31:07;;;;;;;5.70;2.75;;;7.10;99.90;;;;;;6188720;23;20017;-88
2022/11/17 06:33:34;;;;;;;6.35;3.22;;;6.20;99.90;;;;;;6162837;23;20569;-88
2022/11/17 06:36:11;;;;;;;4.55;2.92;;;7.00;99.90;;;;;;6188776;23;20088;-90
2022/11/17 06:38:39;;;;;;;5.68;3.90;;;6.10;99.90;;;;;;6188984;23;20324;-88
2022/11/17 06:41:05;;;;;;;5.28;3.25;;;7.20;99.90;;;;;;6214920;23;20016;-88
2022/11/17 06:43:32;;;;;;;4.88;2.90;;;6.80;99.90;;;;;;6188945;23;20016;-87
2022/11/17 06:46:02;;;;;;;5.97;3.45;;;6.90;99.90;;;;;;6219471;23;20363;-89
2022/11/17 06:48:28;;;;;;;6.40;3.55;;;5.90;99.90;;;;;;6215456;23;20017;-88
2022/11/17 06:50:54;;;;;;;5.32;3.58;;;7.10;99.90;;;;;;6188495;23;20013;-88
2022/11/17 06:53:25;;;;;;;5.32;3.17;;;7.20;99.90;;;;;;6214822;23;20474;-88
2022/11/17 06:56:02;;;;;;;5.93;3.40;;;6.20;99.90;;;;;;6215773;23;20106;-90
2022/11/17 06:58:29;;;;;;;9.15;3.80;;;6.80;99.90;;;;;;6164233;23;20431;-87
2022/11/17 07:01:04;;;;;;;5.93;3.40;;;6.90;99.90;;;;;;6163605;23;20025;-88
2022/11/17 07:03:30;;;;;;;7.07;3.55;;;6.60;99.90;;;;;;6214870;23;20055;-89
2022/11/17 07:06:07;;;;;;;7.70;3.65;;;6.20;99.90;;;;;;6189024;23;20028;-89
2022/11/17 07:08:33;;;;;;;6.55;3.25;;;6.20;99.90;;;;;;6187800;23;20020;-89
2022/11/17 07:11:10;;;;;;;4.85;2.70;;;6.10;99.90;;;;;;6188346;23;20017;-88
2022/11/17 07:13:36;;;;;;;5.50;2.70;;;6.80;99.90;;;;;;6215145;23;20091;-89
2022/11/17 07:16:11;;;;;;;4.97;3.05;;;6.10;99.90;;;;;;6188535;23;20020;-88
2022/11/17 07:18:40;;;;;;;5.18;2.92;;;6.10;99.90;;;;;;6188075;23;20016;-88
2022/11/17 07:21:09;;;;;;;6.07;3.13;;;7.00;99.90;;;;;;6188384;23;20032;-88
2022/11/17 07:23:39;;;;;;;5.50;3.20;;;5.50;99.90;;;;;;6188260;23;20023;-91
2022/11/17 07:26:05;;;;;;;5.68;3.15;;;6.00;99.90;;;;;;6188540;23;20020;-88
2022/11/17 07:28:32;;;;;;;5.57;3.28;;;7.10;99.90;;;;;;6189988;23;20078;-87
2022/11/17 07:31:07;;;;;;;3.90;2.65;;;6.20;99.90;;;;;;6190194;23;20028;-89
2022/11/17 07:33:40;;;;;;;4.93;3.05;;;6.50;99.90;;;;;;6189752;23;20099;-89
2022/11/17 07:36:09;;;;;;;8.18;2.88;;;6.10;99.90;;;;;;6216408;23;20017;-90
2022/11/17 07:38:35;;;;;;;4.60;2.50;;;5.50;99.90;;;;;;6190004;23;20020;-88
2022/11/17 07:41:02;;;;;;;4.70;2.65;;;6.20;99.90;;;;;;6190502;23;20432;-91
2022/11/17 07:43:28;;;;;;;4.63;2.60;;;6.60;99.90;;;;;;6190180;23;20444;-88
2022/11/17 07:45:54;;;;;;;5.53;2.78;;;7.10;99.90;;;;;;6190201;23;20013;-89
2022/11/17 07:48:20;;;;;;;4.90;2.35;;;6.30;99.90;;;;;;6216642;23;20039;-88
2022/11/17 07:50:45;;;;;;;4.72;2.38;;;6.90;99.90;;;;;;6189827;23;20013;-88
2022/11/17 07:53:12;;;;;;;3.55;2.35;;;6.20;99.90;;;;;;6189549;23;20043;-87
2022/11/17 07:55:38;;;;;;;4.40;2.35;;;7.10;99.90;;;;;;6216750;23;20079;-87
2022/11/17 07:58:03;;;;;;;6.15;2.35;;;6.10;99.90;;;;;;6189670;23;20017;-87
2022/11/17 08:00:32;;;;;;;3.78;2.10;;;7.30;99.90;;;;;;6216449;23;20052;-88
2022/11/17 08:03:04;;;;;;;2.53;1.80;;;6.50;99.90;;;;;;6216430;23;20024;-87
2022/11/17 08:05:32;;;;;;;3.28;1.85;;;6.20;99.90;;;;;;6216226;23;20020;-86
2022/11/17 08:07:59;;;;;;;3.85;2.15;;;7.20;99.90;;;;;;6189085;23;20021;-86
2022/11/17 08:10:30;;;;;;;3.55;2.08;;;4.60;99.90;;;;;;6192166;23;20024;-87
2022/11/17 08:12:57;;;;;;;3.45;1.98;;;6.50;99.90;;;;;;6189478;23;20023;-86
2022/11/17 08:15:22;;;;;;;3.28;1.90;;;6.80;99.90;;;;;;6189894;23;20031;-86
2022/11/17 08:17:53;;;;;;;3.95;1.80;;;7.40;99.90;;;;;;6189548;23;20020;-88
2022/11/17 08:20:19;;;;;;;3.35;1.60;;;6.40;99.90;;;;;;6165116;23;20016;-86
2022/11/17 08:22:45;;;;;;;3.55;1.67;;;6.50;99.90;;;;;;6189377;23;20028;-86
2022/11/17 08:25:12;;;;;;;3.03;1.90;;;6.00;99.90;;;;;;6189710;23;20448;-86
2022/11/17 08:27:38;;;;;;;5.38;2.00;;;6.10;99.90;;;;;;6189423;23;20016;-87
2022/11/17 08:30:06;;;;;;;4.30;2.15;;;6.30;99.90;;;;;;6189963;23;20020;-86
2022/11/17 08:32:32;;;;;;;4.10;1.98;;;6.10;99.90;;;;;;6189687;23;20024;-86
2022/11/17 08:34:57;;;;;;;2.78;1.75;;;6.10;99.90;;;;;;6189679;23;20024;-87
2022/11/17 08:37:23;;;;;;;4.38;2.25;;;7.10;99.90;;;;;;6190057;23;20347;-86
2022/11/17 08:39:49;;;;;;;3.58;2.22;;;6.90;99.90;;;;;;6188835;23;20343;-86
2022/11/17 08:42:15;;;;;;;3.63;2.00;;;6.30;99.90;;;;;;6189349;23;20066;-86
2022/11/17 08:44:41;;;;;;;3.53;2.08;;;7.10;99.90;;;;;;6216419;23;20091;-86
2022/11/17 08:47:06;;;;;;;3.70;2.15;;;6.60;99.90;;;;;;6189494;23;20059;-85
2022/11/17 08:49:32;;;;;;;3.50;1.60;;;6.90;99.90;;;;;;6189916;23;20035;-85
2022/11/17 08:51:58;;;;;;;5.40;1.80;;;6.10;99.90;;;;;;6189444;23;20064;-86
2022/11/17 08:54:23;;;;;;;4.25;2.22;;;6.70;99.90;;;;;;6189076;23;20104;-86
2022/11/17 08:56:49;;;;;;;4.50;2.13;;;6.30;99.90;;;;;;6189387;23;20020;-85
2022/11/17 08:59:15;;;;;;;4.38;2.03;;;6.10;99.90;;;;;;6189351;23;20082;-86
2022/11/17 09:01:41;;;;;;;3.75;2.17;;;7.30;99.90;;;;;;6215912;23;20012;-85
2022/11/17 09:04:07;;;;;;;4.45;2.45;;;6.90;99.90;;;;;;6188863;23;20031;-87
2022/11/17 09:06:32;;;;;;;3.47;1.45;;;7.10;99.90;;;;;;6164584;23;20025;-84
2022/11/17 09:08:58;;;;;;;3.13;1.75;;;7.10;99.90;;;;;;6189339;23;20016;-85
2022/11/17 09:11:24;;;;;;;4.13;2.63;;;6.20;99.90;;;;;;6216133;23;20013;-86
2022/11/17 09:13:49;;;;;;;6.15;2.10;;;6.80;99.90;;;;;;6188825;23;20099;-86
2022/11/17 09:16:16;;;;;;;3.97;2.45;;;6.80;99.90;;;;;;6188915;23;20020;-86
2022/11/17 09:18:42;;;;;;;3.92;2.17;;;6.20;99.90;;;;;;6215915;23;20020;-86
2022/11/17 09:21:10;;;;;;;3.78;1.95;;;6.50;99.90;;;;;;6189123;23;20013;-85
2022/11/17 09:23:36;;;;;;;3.22;1.90;;;6.20;99.90;;;;;;6215411;23;20027;-85
2022/11/17 09:26:07;;;;;;;4.68;2.55;;;5.00;99.90;;;;;;6188853;23;20207;-86
2022/11/17 09:28:33;;;;;;;5.38;2.65;;;7.30;99.90;;;;;;6188523;23;20024;-84
2022/11/17 09:31:04;;;;;;;3.78;2.13;;;7.30;99.90;;;;;;6189122;23;20091;-86
2022/11/17 09:33:29;;;;;;;6.85;2.60;;;5.00;99.90;;;;;;6188939;23;20021;-86
2022/11/17 09:35:58;;;;;;;4.35;2.42;;;7.10;99.90;;;;;;6189171;23;20344;-85
2022/11/17 09:38:24;;;;;;;4.93;2.10;;;7.10;99.90;;;;;;6215800;23;20321;-86
2022/11/17 09:40:51;;;;;;;4.30;2.38;;;4.90;99.90;;;;;;6188613;23;20028;-85
2022/11/17 09:43:29;;;;;;;3.80;2.40;;;7.00;99.90;;;;;;6188982;23;20013;-86
2022/11/17 09:46:22;;;;;;;2.97;1.80;;;7.40;99.90;;;;;;6189368;23;20017;-86
2022/11/17 09:49:03;;;;;;;3.30;1.85;;;6.20;99.90;;;;;;6066055;23;20386;-86
2022/11/17 09:51:33;;;;;;;4.95;2.60;;;6.20;99.90;;;;;;6041289;23;20015;-87
2022/11/17 09:54:16;;;;;;;4.95;1.85;;;4.80;99.90;;;;;;6041659;23;20466;-88
2022/11/17 09:56:44;;;;;;;3.25;1.98;;;6.20;99.90;;;;;;6041388;23;20025;-86
2022/11/17 09:59:14;;;;;;;3.05;1.80;;;6.20;99.90;;;;;;6065725;23;20029;-86
2022/11/17 10:01:40;;;;;;;4.47;2.03;;;7.20;99.90;;;;;;6041417;23;20035;-86
2022/11/17 10:04:11;;;;;;;4.78;2.60;;;7.30;99.90;;;;;;6065470;23;20033;-86
2022/11/17 10:06:39;;;;;;;4.15;2.50;;;6.10;99.90;;;;;;6065424;23;20018;-87
2022/11/17 10:09:10;;;;;;;3.10;1.67;;;7.30;99.90;;;;;;6041589;23;20111;-86
2022/11/17 10:11:38;;;;;;;4.18;2.25;;;6.90;99.90;;;;;;6065585;23;20416;-88
2022/11/17 10:14:16;;;;;;;5.22;2.72;;;6.20;99.90;;;;;;6017664;23;20458;-87
2022/11/17 10:16:43;;;;;;;4.75;2.30;;;6.10;99.90;;;;;;6041720;23;20033;-86
2022/11/17 10:19:19;;;;;;;6.40;3.05;;;6.10;99.90;;;;;;6041530;23;20019;-87
2022/11/17 10:21:51;;;;;;;5.35;2.88;;;6.10;99.90;;;;;;6065737;23;20534;-88
2022/11/17 10:24:35;;;;;;;5.45;2.80;;;6.10;99.90;;;;;;6041569;23;20023;-87
2022/11/17 10:27:18;;;;;;;4.60;2.50;;;5.10;99.90;;;;;;6215342;23;20028;-87
2022/11/17 10:30:12;;;;;;;6.15;2.90;;;5.70;99.90;;;;;;6188749;23;20075;-87
2022/11/17 10:32:48;;;;;;;5.43;2.47;;;6.10;99.90;;;;;;6041174;23;20023;-86
2022/11/17 10:35:16;;;;;;;5.20;2.63;;;6.20;99.90;;;;;;6065446;23;20019;-86
2022/11/17 10:38:07;;;;;;;4.85;2.50;;;6.90;99.90;;;;;;6065302;23;20038;-87
2022/11/17 10:40:53;;;;;;;7.03;3.25;;;6.20;99.90;;;;;;6065593;23;20094;-87
2022/11/17 10:43:26;;;;;;;5.80;3.03;;;6.20;99.90;;;;;;6041416;23;20026;-87
2022/11/17 10:45:59;;;;;;;4.93;2.92;;;7.40;99.90;;;;;;6041658;23;20401;-87
2022/11/17 10:48:36;;;;;;;4.65;2.40;;;7.10;99.90;;;;;;6065198;23;20346;-87
2022/11/17 10:51:03;;;;;;;4.57;2.25;;;6.40;99.90;;;;;;6041644;23;20019;-87
2022/11/17 10:53:40;;;;;;;4.43;2.45;;;6.30;99.90;;;;;;6065144;23;20015;-87
2022/11/17 10:56:14;;;;;;;4.28;2.67;;;6.80;99.90;;;;;;6065323;23;20023;-87
2022/11/17 10:59:23;;;;;;;4.90;2.83;;;6.30;99.90;;;;;;6041257;23;20014;-85
2022/11/17 11:01:50;;;;;;;4.55;2.30;;;6.30;99.90;;;;;;5980392;24;20089;-87
2022/11/17 11:04:42;;;;;;;5.72;2.58;;;7.10;99.90;;;;;;5981392;24;20392;-87
2022/11/17 11:07:21;;;;;;;4.43;2.08;;;6.90;99.90;;;;;;5935882;24;20480;-90
2022/11/17 11:09:49;;;;;;;4.63;2.50;;;6.20;99.90;;;;;;6053307;23;20022;-87
2022/11/17 11:12:23;;;;;;;4.88;2.50;;;6.30;99.90;;;;;;6100899;23;20017;-85
2022/11/17 11:14:56;;;;;;;4.95;3.15;;;7.10;99.90;;;;;;6125276;23;20162;-86
2022/11/17 11:17:27;;;;;;;6.35;3.33;;;6.30;99.90;;;;;;6100728;23;20104;-87
2022/11/17 11:19:54;;;;;;;6.00;3.00;;;6.20;99.90;;;;;;6112353;23;20021;-89
2022/11/17 11:22:34;;;;;;;12.70;3.85;;;6.10;99.90;;;;;;6156820;23;20508;-87
2022/11/17 11:25:43;;;;;;;5.18;3.22;;;6.10;99.90;;;;;;6131677;23;20048;-88
2022/11/17 11:28:47;;;;;;;5.25;3.47;;;6.90;99.90;;;;;;6156028;23;20049;-89
2022/11/17 11:31:42;;;;;;;5.57;2.97;;;6.20;99.90;;;;;;6156448;23;20021;-90
2022/11/17 11:34:42;;;;;;;7.10;3.65;;;6.20;99.90;;;;;;6157516;23;20337;-88
2022/11/17 11:37:13;;;;;;;5.10;3.13;;;7.10;99.90;;;;;;6155421;23;20021;-90
2022/11/17 11:39:48;;;;;;;7.35;3.60;;;6.90;99.90;;;;;;6157961;23;20018;-89
2022/11/17 11:42:21;;;;;;;5.13;2.88;;;6.30;99.90;;;;;;6132027;23;20036;-87
2022/11/17 11:45:11;;;;;;;7.07;3.40;;;6.30;99.90;;;;;;6157715;23;20022;-87
2022/11/17 11:48:09;;;;;;;5.97;3.22;;;6.30;99.90;;;;;;6156012;23;20028;-88
2022/11/17 11:50:55;;;;;;;7.53;4.00;;;6.40;99.90;;;;;;6037744;23;20090;-87
2022/11/17 11:53:32;;;;;;;5.75;3.63;;;6.40;99.90;;;;;;6014591;23;20450;-88
2022/11/17 11:56:23;;;;;;;6.45;3.25;;;6.50;99.90;;;;;;6014716;23;20030;-86
2022/11/17 11:59:03;;;;;;;6.82;3.42;;;6.40;99.90;;;;;;6014630;23;20372;-86
2022/11/17 12:02:11;;;;;;;6.63;3.47;;;6.50;99.90;;;;;;5990898;23;20065;-86
2022/11/17 12:04:57;;;;;;;7.43;4.40;;;6.50;99.90;;;;;;5876111;24;20497;-86
2022/11/17 12:07:45;;;;;;;5.93;2.92;;;6.50;99.90;;;;;;5898774;24;20074;-87
2022/11/17 12:10:32;;;;;;;6.90;3.42;;;6.60;99.90;;;;;;5876020;24;20033;-88
2022/11/17 12:12:58;;;;;;;6.13;3.53;;;6.50;99.90;;;;;;5875771;24;20033;-87
2022/11/17 12:15:24;;;;;;;6.28;3.60;;;6.50;99.90;;;;;;5876250;24;20032;-87
2022/11/17 12:17:59;;;;;;;7.40;3.13;;;7.00;99.90;;;;;;5876147;24;20104;-91
2022/11/17 12:21:00;;;;;;;6.55;3.58;;;6.60;99.90;;;;;;5875839;24;20026;-87
2022/11/17 12:23:47;;;;;;;5.90;3.50;;;6.50;99.90;;;;;;5899080;24;20083;-87
2022/11/17 12:26:31;;;;;;;6.50;3.92;;;6.50;99.90;;;;;;5898666;24;20029;-87
2022/11/17 12:29:20;;;;;;;6.13;3.42;;;7.50;99.90;;;;;;6014328;23;20027;-87
2022/11/17 12:31:50;;;;;;;5.53;3.47;;;6.60;99.90;;;;;;6037925;23;20399;-90
2022/11/17 12:34:25;;;;;;;5.35;2.85;;;7.10;99.90;;;;;;6014122;23;20095;-88
2022/11/17 12:37:18;;;;;;;5.07;2.90;;;7.40;99.90;;;;;;6037715;23;20525;-87
2022/11/17 12:39:56;;;;;;;5.55;3.47;;;6.50;99.90;;;;;;6020501;23;20424;-92
2022/11/17 12:42:30;;;;;;;4.85;2.92;;;7.50;99.90;;;;;;6154858;23;20029;-90
2022/11/17 12:44:59;;;;;;;8.02;3.47;;;6.50;99.90;;;;;;6155153;23;20017;-89
2022/11/17 12:47:47;;;;;;;5.15;3.17;;;6.90;99.90;;;;;;6154743;23;20014;-89
2022/11/17 12:50:42;;;;;;;6.20;3.35;;;6.00;99.90;;;;;;6154427;23;20349;-88
2022/11/17 12:53:48;;;;;;;6.57;3.20;;;6.50;99.90;;;;;;6156699;23;20088;-89
2022/11/17 12:56:17;;;;;;;6.13;3.38;;;6.50;99.90;;;;;;5990931;23;20019;-89
2022/11/17 12:59:26;;;;;;;5.30;3.15;;;7.70;99.90;;;;;;6013657;23;20359;-90
2022/11/17 13:02:25;;;;;;;3.63;2.38;;;6.60;99.90;;;;;;5875433;24;20328;-87
2022/11/17 13:05:02;;;;;;;4.47;2.80;;;6.60;99.90;;;;;;5875642;24;20064;-90
2022/11/17 13:07:31;;;;;;;4.05;2.53;;;6.60;99.90;;;;;;5876244;24;20022;-91
2022/11/17 13:10:01;;;;;;;5.32;3.22;;;6.60;99.90;;;;;;5898216;24;20116;-86
2022/11/17 13:12:29;;;;;;;5.43;3.08;;;6.60;99.90;;;;;;5875845;24;20346;-85
2022/11/17 13:14:57;;;;;;;5.50;3.90;;;7.30;99.90;;;;;;5898614;24;20323;-86
2022/11/17 13:17:31;;;;;;;3.28;2.55;;;6.70;99.90;;;;;;5875221;24;20029;-86
2022/11/17 13:20:25;;;;;;;4.70;3.25;;;6.60;99.90;;;;;;5852514;24;20108;-86
2022/11/17 13:23:03;;;;;;;5.97;2.90;;;7.80;99.90;;;;;;5870875;24;20480;-86
2022/11/17 13:25:33;;;;;;;4.88;3.03;;;6.70;99.90;;;;;;5897689;24;20021;-88
2022/11/17 13:28:02;;;;;;;3.83;2.80;;;6.60;99.90;;;;;;5999997;23;20134;-87
2022/11/17 13:30:33;;;;;;;4.22;2.72;;;7.60;99.90;;;;;;6036629;23;20027;-88
2022/11/17 13:33:12;;;;;;;4.15;2.78;;;7.50;99.90;;;;;;6012426;23;20440;-88
2022/11/17 13:35:42;;;;;;;4.55;2.63;;;6.70;99.90;;;;;;6011318;23;20019;-88
2022/11/17 13:38:18;;;;;;;4.38;2.70;;;7.10;99.90;;;;;;6036669;23;20027;-86
2022/11/17 13:40:45;;;;;;;4.32;2.65;;;7.70;99.90;;;;;;6154666;23;20021;-88
2022/11/17 13:43:19;;;;;;;7.97;2.88;;;7.70;99.90;;;;;;6154346;23;20025;-86
2022/11/17 13:45:48;;;;;;;3.90;2.60;;;8.00;99.90;;;;;;6154651;23;20468;-86
2022/11/17 13:48:37;;;;;;;4.00;2.53;;;6.80;99.90;;;;;;6155570;23;20103;-91
2022/11/17 13:51:37;;;;;;;4.70;3.00;;;6.80;99.90;;;;;;6154606;23;20017;-87
2022/11/17 13:54:12;;;;;;;4.22;2.83;;;6.80;99.90;;;;;;6154358;23;20108;-87
2022/11/17 13:56:45;;;;;;;4.13;2.73;;;5.30;99.90;;;;;;6129912;23;20018;-87